sensor_id;sensor_type;location;lat;lon;timestamp;temperature;humidity
65462;DHT22;53236;43.666;18.444;2023-04-08T00:01:01;1.40;99.90
65462;DHT22;53236;43.666;18.444;2023-04-08T00:03:27;1.30;99.90
65462;DHT22;53236;43.666;18.444;2023-04-08T00:05:53;1.30;99.90
65462;DHT22;53236;43.666;18.444;2023-04-08T00:08:19;1.30;99.90
65462;DHT22;53236;43.666;18.444;2023-04-08T00:10:44;1.30;99.90
65462;DHT22;53236;43.666;18.444;2023-04-08T00:13:10;1.30;99.90
65462;DHT22;53236;43.666;18.444;2023-04-08T00:15:36;1.20;99.90
65462;DHT22;53236;43.666;18.444;2023-04-08T00:18:02;1.20;99.90
65462;DHT22;53236;43.666;18.444;2023-04-08T00:20:28;1.00;99.90
65462;DHT22;53236;43.666;18.444;2023-04-08T00:22:54;1.00;99.90
65462;DHT22;53236;43.666;18.444;2023-04-08T00:25:19;1.00;99.90
65462;DHT22;53236;43.666;18.444;2023-04-08T00:27:45;0.90;99.90
65462;DHT22;53236;43.666;18.444;2023-04-08T00:30:19;0.80;99.90
65462;DHT22;53236;43.666;18.444;2023-04-08T00:32:45;0.80;99.90
65462;DHT22;53236;43.666;18.444;2023-04-08T00:35:11;0.70;99.90
65462;DHT22;53236;43.666;18.444;2023-04-08T00:37:37;0.70;99.90
65462;DHT22;53236;43.666;18.444;2023-04-08T00:40:03;0.60;99.90
65462;DHT22;53236;43.666;18.444;2023-04-08T00:42:29;0.60;99.90
65462;DHT22;53236;43.666;18.444;2023-04-08T00:44:55;0.50;99.90
65462;DHT22;53236;43.666;18.444;2023-04-08T00:47:21;0.40;99.90
65462;DHT22;53236;43.666;18.444;2023-04-08T00:49:47;0.30;99.90
65462;DHT22;53236;43.666;18.444;2023-04-08T00:52:13;0.30;99.90
65462;DHT22;53236;43.666;18.444;2023-04-08T00:54:38;0.30;99.90
65462;DHT22;53236;43.666;18.444;2023-04-08T00:57:05;0.30;99.90
65462;DHT22;53236;43.666;18.444;2023-04-08T00:59:32;0.30;99.90
65462;DHT22;53236;43.666;18.444;2023-04-08T01:07:26;0.40;99.90
65462;DHT22;53236;43.666;18.444;2023-04-08T01:09:54;0.40;99.90
65462;DHT22;53236;43.666;18.444;2023-04-08T01:12:25;0.50;99.90
65462;DHT22;53236;43.666;18.444;2023-04-08T01:14:59;0.50;99.90
65462;DHT22;53236;43.666;18.444;2023-04-08T01:17:29;0.50;99.90
65462;DHT22;53236;43.666;18.444;2023-04-08T01:19:57;0.60;99.90
65462;DHT22;53236;43.666;18.444;2023-04-08T01:22:45;0.50;99.90
65462;DHT22;53236;43.666;18.444;2023-04-08T01:25:25;0.60;99.90
65462;DHT22;53236;43.666;18.444;2023-04-08T01:27:52;0.60;99.90
65462;DHT22;53236;43.666;18.444;2023-04-08T01:30:23;0.70;99.90
65462;DHT22;53236;43.666;18.444;2023-04-08T01:32:51;0.70;99.90
65462;DHT22;53236;43.666;18.444;2023-04-08T01:35:18;0.70;99.90
65462;DHT22;53236;43.666;18.444;2023-04-08T01:37:46;0.80;99.90
65462;DHT22;53236;43.666;18.444;2023-04-08T01:40:13;0.70;99.90
65462;DHT22;53236;43.666;18.444;2023-04-08T01:42:40;0.60;99.90
65462;DHT22;53236;43.666;18.444;2023-04-08T01:45:08;0.60;99.90
65462;DHT22;53236;43.666;18.444;2023-04-08T01:47:34;0.70;99.90
65462;DHT22;53236;43.666;18.444;2023-04-08T01:50:02;0.60;99.90
65462;DHT22;53236;43.666;18.444;2023-04-08T01:52:29;0.60;99.90
65462;DHT22;53236;43.666;18.444;2023-04-08T01:54:55;0.70;99.90
65462;DHT22;53236;43.666;18.444;2023-04-08T01:57:27;0.70;99.90
65462;DHT22;53236;43.666;18.444;2023-04-08T01:59:55;0.70;99.90
65462;DHT22;53236;43.666;18.444;2023-04-08T02:02:25;0.70;99.90
65462;DHT22;53236;43.666;18.444;2023-04-08T02:04:52;0.70;99.90
65462;DHT22;53236;43.666;18.444;2023-04-08T02:07:18;0.70;99.90
65462;DHT22;53236;43.666;18.444;2023-04-08T02:09:44;0.70;99.90
65462;DHT22;53236;43.666;18.444;2023-04-08T02:12:10;0.70;99.90
65462;DHT22;53236;43.666;18.444;2023-04-08T02:14:36;0.70;99.90
65462;DHT22;53236;43.666;18.444;2023-04-08T02:17:13;0.70;99.90
65462;DHT22;53236;43.666;18.444;2023-04-08T02:20:07;0.70;99.90
65462;DHT22;53236;43.666;18.444;2023-04-08T02:22:42;0.80;99.90
65462;DHT22;53236;43.666;18.444;2023-04-08T02:25:12;0.80;99.90
65462;DHT22;53236;43.666;18.444;2023-04-08T02:27:39;0.80;99.90
65462;DHT22;53236;43.666;18.444;2023-04-08T02:30:07;0.80;99.90
65462;DHT22;53236;43.666;18.444;2023-04-08T02:32:34;0.90;99.90
65462;DHT22;53236;43.666;18.444;2023-04-08T02:35:01;0.80;99.90
65462;DHT22;53236;43.666;18.444;2023-04-08T02:37:28;0.80;99.90
65462;DHT22;53236;43.666;18.444;2023-04-08T02:39:55;0.80;99.90
65462;DHT22;53236;43.666;18.444;2023-04-08T02:42:20;0.90;99.90
65462;DHT22;53236;43.666;18.444;2023-04-08T02:44:46;0.90;99.90
65462;DHT22;53236;43.666;18.444;2023-04-08T02:47:12;0.90;99.90
65462;DHT22;53236;43.666;18.444;2023-04-08T02:49:38;1.00;99.90
65462;DHT22;53236;43.666;18.444;2023-04-08T02:52:03;1.00;99.90
65462;DHT22;53236;43.666;18.444;2023-04-08T02:54:29;1.00;99.90
65462;DHT22;53236;43.666;18.444;2023-04-08T02:56:56;1.00;99.90
65462;DHT22;53236;43.666;18.444;2023-04-08T02:59:21;1.00;99.90
65462;DHT22;53236;43.666;18.444;2023-04-08T03:01:47;1.00;99.90
65462;DHT22;53236;43.666;18.444;2023-04-08T03:04:13;1.00;99.90
65462;DHT22;53236;43.666;18.444;2023-04-08T03:06:38;1.00;99.90
65462;DHT22;53236;43.666;18.444;2023-04-08T03:09:04;1.00;99.90
65462;DHT22;53236;43.666;18.444;2023-04-08T03:11:32;1.00;99.90
65462;DHT22;53236;43.666;18.444;2023-04-08T03:13:59;1.00;99.90
65462;DHT22;53236;43.666;18.444;2023-04-08T03:16:25;1.00;99.90
65462;DHT22;53236;43.666;18.444;2023-04-08T03:18:51;1.00;99.90
65462;DHT22;53236;43.666;18.444;2023-04-08T03:21:17;1.00;99.90
65462;DHT22;53236;43.666;18.444;2023-04-08T03:23:43;1.00;99.90
65462;DHT22;53236;43.666;18.444;2023-04-08T03:26:09;1.00;99.90
65462;DHT22;53236;43.666;18.444;2023-04-08T03:28:34;1.00;99.90
65462;DHT22;53236;43.666;18.444;2023-04-08T03:31:02;1.00;99.90
65462;DHT22;53236;43.666;18.444;2023-04-08T03:33:28;1.00;99.90
65462;DHT22;53236;43.666;18.444;2023-04-08T03:35:54;1.10;99.90
65462;DHT22;53236;43.666;18.444;2023-04-08T03:38:20;1.10;99.90
65462;DHT22;53236;43.666;18.444;2023-04-08T03:40:46;1.10;99.90
65462;DHT22;53236;43.666;18.444;2023-04-08T03:43:12;1.00;99.90
65462;DHT22;53236;43.666;18.444;2023-04-08T03:45:38;1.00;99.90
65462;DHT22;53236;43.666;18.444;2023-04-08T03:48:04;1.00;99.90
65462;DHT22;53236;43.666;18.444;2023-04-08T03:50:30;1.00;99.90
65462;DHT22;53236;43.666;18.444;2023-04-08T03:52:55;1.00;99.90
65462;DHT22;53236;43.666;18.444;2023-04-08T03:55:21;1.00;99.90
65462;DHT22;53236;43.666;18.444;2023-04-08T03:57:47;1.10;99.90
65462;DHT22;53236;43.666;18.444;2023-04-08T04:00:13;1.10;99.90
65462;DHT22;53236;43.666;18.444;2023-04-08T04:02:39;1.00;99.90
65462;DHT22;53236;43.666;18.444;2023-04-08T04:05:05;1.10;99.90
65462;DHT22;53236;43.666;18.444;2023-04-08T04:07:31;1.10;99.90
65462;DHT22;53236;43.666;18.444;2023-04-08T04:09:56;1.00;99.90
65462;DHT22;53236;43.666;18.444;2023-04-08T04:12:22;1.10;99.90
65462;DHT22;53236;43.666;18.444;2023-04-08T04:14:48;1.10;99.90
65462;DHT22;53236;43.666;18.444;2023-04-08T04:17:14;1.10;99.90
65462;DHT22;53236;43.666;18.444;2023-04-08T04:19:40;1.00;99.90
65462;DHT22;53236;43.666;18.444;2023-04-08T04:22:05;1.00;99.90
65462;DHT22;53236;43.666;18.444;2023-04-08T04:24:31;1.00;99.90
65462;DHT22;53236;43.666;18.444;2023-04-08T04:26:57;1.00;99.90
65462;DHT22;53236;43.666;18.444;2023-04-08T04:29:22;1.10;99.90
65462;DHT22;53236;43.666;18.444;2023-04-08T04:31:48;1.00;99.90
65462;DHT22;53236;43.666;18.444;2023-04-08T04:34:14;1.10;99.90
65462;DHT22;53236;43.666;18.444;2023-04-08T04:36:39;1.10;99.90
65462;DHT22;53236;43.666;18.444;2023-04-08T04:39:05;1.10;99.90
65462;DHT22;53236;43.666;18.444;2023-04-08T04:41:31;1.00;99.90
65462;DHT22;53236;43.666;18.444;2023-04-08T04:43:57;1.10;99.90
65462;DHT22;53236;43.666;18.444;2023-04-08T04:46:22;1.10;99.90
65462;DHT22;53236;43.666;18.444;2023-04-08T04:48:48;1.20;99.90
65462;DHT22;53236;43.666;18.444;2023-04-08T04:51:14;1.20;99.90
65462;DHT22;53236;43.666;18.444;2023-04-08T04:53:40;1.30;99.90
65462;DHT22;53236;43.666;18.444;2023-04-08T04:56:05;1.30;99.90
65462;DHT22;53236;43.666;18.444;2023-04-08T04:58:31;1.40;99.90
65462;DHT22;53236;43.666;18.444;2023-04-08T05:00:57;1.40;99.90
65462;DHT22;53236;43.666;18.444;2023-04-08T05:03:23;1.50;99.90
65462;DHT22;53236;43.666;18.444;2023-04-08T05:05:52;1.50;99.90
65462;DHT22;53236;43.666;18.444;2023-04-08T05:08:19;1.60;99.90
65462;DHT22;53236;43.666;18.444;2023-04-08T05:10:45;1.60;99.90
65462;DHT22;53236;43.666;18.444;2023-04-08T05:13:10;1.70;99.90
65462;DHT22;53236;43.666;18.444;2023-04-08T05:15:36;1.80;99.90
65462;DHT22;53236;43.666;18.444;2023-04-08T05:18:02;1.90;99.90
65462;DHT22;53236;43.666;18.444;2023-04-08T05:20:27;1.90;99.90
65462;DHT22;53236;43.666;18.444;2023-04-08T05:22:53;2.10;99.90
65462;DHT22;53236;43.666;18.444;2023-04-08T05:25:19;2.20;99.90
65462;DHT22;53236;43.666;18.444;2023-04-08T05:27:44;2.30;99.90
65462;DHT22;53236;43.666;18.444;2023-04-08T05:30:11;2.50;99.90
65462;DHT22;53236;43.666;18.444;2023-04-08T05:32:37;2.70;99.90
65462;DHT22;53236;43.666;18.444;2023-04-08T05:35:03;2.80;99.90
65462;DHT22;53236;43.666;18.444;2023-04-08T05:37:29;2.90;99.90
65462;DHT22;53236;43.666;18.444;2023-04-08T05:39:55;3.00;99.90
65462;DHT22;53236;43.666;18.444;2023-04-08T05:42:21;2.90;99.90
65462;DHT22;53236;43.666;18.444;2023-04-08T05:44:46;3.00;99.90
65462;DHT22;53236;43.666;18.444;2023-04-08T05:47:12;3.10;99.90
65462;DHT22;53236;43.666;18.444;2023-04-08T05:49:39;3.10;99.90
65462;DHT22;53236;43.666;18.444;2023-04-08T05:52:05;3.10;99.90
65462;DHT22;53236;43.666;18.444;2023-04-08T05:54:31;3.20;99.90
65462;DHT22;53236;43.666;18.444;2023-04-08T05:56:57;3.30;99.90
65462;DHT22;53236;43.666;18.444;2023-04-08T05:59:23;3.60;99.90
65462;DHT22;53236;43.666;18.444;2023-04-08T06:01:48;3.80;99.90
65462;DHT22;53236;43.666;18.444;2023-04-08T06:04:15;4.10;99.90
65462;DHT22;53236;43.666;18.444;2023-04-08T06:06:42;4.40;99.90
65462;DHT22;53236;43.666;18.444;2023-04-08T06:09:08;4.70;99.90
65462;DHT22;53236;43.666;18.444;2023-04-08T06:11:36;4.90;99.90
65462;DHT22;53236;43.666;18.444;2023-04-08T06:14:02;5.20;99.90
65462;DHT22;53236;43.666;18.444;2023-04-08T06:16:27;5.70;99.90
65462;DHT22;53236;43.666;18.444;2023-04-08T06:18:53;6.10;99.90
65462;DHT22;53236;43.666;18.444;2023-04-08T06:21:19;6.60;99.90
65462;DHT22;53236;43.666;18.444;2023-04-08T06:23:46;7.10;99.90
65462;DHT22;53236;43.666;18.444;2023-04-08T06:26:11;7.50;96.80
65462;DHT22;53236;43.666;18.444;2023-04-08T06:28:37;7.90;95.80
65462;DHT22;53236;43.666;18.444;2023-04-08T06:31:03;8.50;90.20
65462;DHT22;53236;43.666;18.444;2023-04-08T06:33:29;9.00;83.70
65462;DHT22;53236;43.666;18.444;2023-04-08T06:36:04;9.20;78.50
65462;DHT22;53236;43.666;18.444;2023-04-08T06:38:30;9.50;78.60
65462;DHT22;53236;43.666;18.444;2023-04-08T06:41:03;9.80;74.00
65462;DHT22;53236;43.666;18.444;2023-04-08T06:43:29;10.30;71.20
65462;DHT22;53236;43.666;18.444;2023-04-08T06:45:55;11.00;68.70
65462;DHT22;53236;43.666;18.444;2023-04-08T06:48:22;12.20;64.20
65462;DHT22;53236;43.666;18.444;2023-04-08T06:50:56;13.40;58.90
65462;DHT22;53236;43.666;18.444;2023-04-08T06:53:23;13.90;56.70
65462;DHT22;53236;43.666;18.444;2023-04-08T06:55:49;14.60;55.40
65462;DHT22;53236;43.666;18.444;2023-04-08T06:58:15;16.70;52.90
65462;DHT22;53236;43.666;18.444;2023-04-08T07:00:43;19.00;51.60
65462;DHT22;53236;43.666;18.444;2023-04-08T07:03:09;20.40;45.80
65462;DHT22;53236;43.666;18.444;2023-04-08T07:05:36;22.20;43.20
65462;DHT22;53236;43.666;18.444;2023-04-08T07:08:03;23.80;43.10
65462;DHT22;53236;43.666;18.444;2023-04-08T07:10:29;25.20;37.50
65462;DHT22;53236;43.666;18.444;2023-04-08T07:12:55;26.40;38.20
65462;DHT22;53236;43.666;18.444;2023-04-08T07:15:21;26.90;39.30
65462;DHT22;53236;43.666;18.444;2023-04-08T07:17:46;28.40;35.30
65462;DHT22;53236;43.666;18.444;2023-04-08T07:20:12;28.90;32.90
65462;DHT22;53236;43.666;18.444;2023-04-08T07:22:41;28.70;32.10
65462;DHT22;53236;43.666;18.444;2023-04-08T07:25:07;28.00;32.80
65462;DHT22;53236;43.666;18.444;2023-04-08T07:27:33;28.70;32.20
65462;DHT22;53236;43.666;18.444;2023-04-08T07:29:59;29.00;31.70
65462;DHT22;53236;43.666;18.444;2023-04-08T07:32:25;30.10;30.90
65462;DHT22;53236;43.666;18.444;2023-04-08T07:34:51;29.10;29.70
65462;DHT22;53236;43.666;18.444;2023-04-08T07:37:17;29.10;30.00
65462;DHT22;53236;43.666;18.444;2023-04-08T07:39:43;29.00;29.50
65462;DHT22;53236;43.666;18.444;2023-04-08T07:42:09;29.90;31.40
65462;DHT22;53236;43.666;18.444;2023-04-08T07:44:34;30.20;30.40
65462;DHT22;53236;43.666;18.444;2023-04-08T07:47:00;31.30;32.80
65462;DHT22;53236;43.666;18.444;2023-04-08T07:49:26;30.90;29.00
65462;DHT22;53236;43.666;18.444;2023-04-08T07:51:52;29.40;29.10
65462;DHT22;53236;43.666;18.444;2023-04-08T07:54:18;29.30;30.00
65462;DHT22;53236;43.666;18.444;2023-04-08T07:56:43;30.40;30.50
65462;DHT22;53236;43.666;18.444;2023-04-08T07:59:12;31.20;29.90
65462;DHT22;53236;43.666;18.444;2023-04-08T08:01:38;31.10;29.00
65462;DHT22;53236;43.666;18.444;2023-04-08T08:04:03;30.80;28.30
65462;DHT22;53236;43.666;18.444;2023-04-08T08:06:30;29.70;29.00
65462;DHT22;53236;43.666;18.444;2023-04-08T08:08:59;28.80;28.50
65462;DHT22;53236;43.666;18.444;2023-04-08T08:11:25;27.90;28.80
65462;DHT22;53236;43.666;18.444;2023-04-08T08:13:52;27.30;29.30
65462;DHT22;53236;43.666;18.444;2023-04-08T08:16:18;27.20;29.90
65462;DHT22;53236;43.666;18.444;2023-04-08T08:18:44;26.50;29.70
65462;DHT22;53236;43.666;18.444;2023-04-08T08:21:10;26.00;30.30
65462;DHT22;53236;43.666;18.444;2023-04-08T08:23:36;23.90;30.70
65462;DHT22;53236;43.666;18.444;2023-04-08T08:26:06;23.10;32.10
65462;DHT22;53236;43.666;18.444;2023-04-08T08:28:34;23.90;31.80
65462;DHT22;53236;43.666;18.444;2023-04-08T08:31:00;23.80;32.60
65462;DHT22;53236;43.666;18.444;2023-04-08T08:33:26;24.40;32.50
65462;DHT22;53236;43.666;18.444;2023-04-08T08:35:52;23.60;31.30
65462;DHT22;53236;43.666;18.444;2023-04-08T08:38:18;23.10;31.10
65462;DHT22;53236;43.666;18.444;2023-04-08T08:40:44;22.90;32.20
65462;DHT22;53236;43.666;18.444;2023-04-08T08:43:11;23.80;32.00
65462;DHT22;53236;43.666;18.444;2023-04-08T08:45:40;24.60;32.90
65462;DHT22;53236;43.666;18.444;2023-04-08T08:48:07;24.80;31.50
65462;DHT22;53236;43.666;18.444;2023-04-08T08:50:36;24.60;31.60
65462;DHT22;53236;43.666;18.444;2023-04-08T08:53:02;24.40;31.60
65462;DHT22;53236;43.666;18.444;2023-04-08T08:55:30;24.10;33.20
65462;DHT22;53236;43.666;18.444;2023-04-08T08:58:01;24.20;31.20
65462;DHT22;53236;43.666;18.444;2023-04-08T09:00:35;22.90;31.60
65462;DHT22;53236;43.666;18.444;2023-04-08T09:03:25;23.00;31.60
65462;DHT22;53236;43.666;18.444;2023-04-08T09:05:58;22.70;31.70
65462;DHT22;53236;43.666;18.444;2023-04-08T09:10:51;22.60;30.60
65462;DHT22;53236;43.666;18.444;2023-04-08T09:13:17;24.90;30.70
65462;DHT22;53236;43.666;18.444;2023-04-08T09:16:03;25.90;30.80
65462;DHT22;53236;43.666;18.444;2023-04-08T09:18:30;26.00;29.20
65462;DHT22;53236;43.666;18.444;2023-04-08T09:20:58;26.60;30.30
65462;DHT22;53236;43.666;18.444;2023-04-08T09:23:37;27.60;30.20
65462;DHT22;53236;43.666;18.444;2023-04-08T09:26:10;27.70;28.80
65462;DHT22;53236;43.666;18.444;2023-04-08T09:28:37;29.00;28.80
65462;DHT22;53236;43.666;18.444;2023-04-08T09:31:23;28.80;28.20
65462;DHT22;53236;43.666;18.444;2023-04-08T09:33:54;28.20;30.00
65462;DHT22;53236;43.666;18.444;2023-04-08T09:36:20;26.80;29.40
65462;DHT22;53236;43.666;18.444;2023-04-08T09:38:46;25.70;29.70
65462;DHT22;53236;43.666;18.444;2023-04-08T09:41:16;24.20;30.00
65462;DHT22;53236;43.666;18.444;2023-04-08T09:43:43;23.70;30.00
65462;DHT22;53236;43.666;18.444;2023-04-08T09:46:15;23.20;30.00
65462;DHT22;53236;43.666;18.444;2023-04-08T09:48:49;23.60;32.00
65462;DHT22;53236;43.666;18.444;2023-04-08T09:51:17;22.80;30.50
65462;DHT22;53236;43.666;18.444;2023-04-08T09:53:52;22.90;32.20
65462;DHT22;53236;43.666;18.444;2023-04-08T09:56:20;22.90;31.80
65462;DHT22;53236;43.666;18.444;2023-04-08T09:59:02;21.90;31.50
65462;DHT22;53236;43.666;18.444;2023-04-08T10:01:35;21.00;32.20
65462;DHT22;53236;43.666;18.444;2023-04-08T10:04:05;21.30;33.50
65462;DHT22;53236;43.666;18.444;2023-04-08T10:06:32;21.10;33.00
65462;DHT22;53236;43.666;18.444;2023-04-08T10:08:59;19.40;34.20
65462;DHT22;53236;43.666;18.444;2023-04-08T10:11:26;18.90;35.30
65462;DHT22;53236;43.666;18.444;2023-04-08T10:13:52;19.00;35.60
65462;DHT22;53236;43.666;18.444;2023-04-08T10:16:20;18.60;37.60
65462;DHT22;53236;43.666;18.444;2023-04-08T10:18:46;18.80;37.80
65462;DHT22;53236;43.666;18.444;2023-04-08T10:21:33;18.50;35.70
65462;DHT22;53236;43.666;18.444;2023-04-08T10:24:00;18.10;37.70
65462;DHT22;53236;43.666;18.444;2023-04-08T10:26:35;18.30;37.40
65462;DHT22;53236;43.666;18.444;2023-04-08T10:31:49;18.50;37.80
65462;DHT22;53236;43.666;18.444;2023-04-08T10:34:19;17.30;36.80
65462;DHT22;53236;43.666;18.444;2023-04-08T10:36:46;17.20;38.40
65462;DHT22;53236;43.666;18.444;2023-04-08T10:39:13;17.10;36.90
65462;DHT22;53236;43.666;18.444;2023-04-08T10:41:44;17.10;38.00
65462;DHT22;53236;43.666;18.444;2023-04-08T10:44:21;16.90;39.10
65462;DHT22;53236;43.666;18.444;2023-04-08T10:46:48;17.00;40.00
65462;DHT22;53236;43.666;18.444;2023-04-08T10:49:17;16.60;38.80
65462;DHT22;53236;43.666;18.444;2023-04-08T10:51:44;16.20;38.20
65462;DHT22;53236;43.666;18.444;2023-04-08T10:54:12;16.00;37.50
65462;DHT22;53236;43.666;18.444;2023-04-08T10:56:48;15.20;38.80
65462;DHT22;53236;43.666;18.444;2023-04-08T10:59:16;14.50;40.80
65462;DHT22;53236;43.666;18.444;2023-04-08T11:01:43;14.40;41.70
65462;DHT22;53236;43.666;18.444;2023-04-08T11:04:16;14.20;42.60
65462;DHT22;53236;43.666;18.444;2023-04-08T11:06:48;14.00;43.20
65462;DHT22;53236;43.666;18.444;2023-04-08T11:09:14;13.90;43.70
65462;DHT22;53236;43.666;18.444;2023-04-08T11:11:42;13.50;43.10
65462;DHT22;53236;43.666;18.444;2023-04-08T11:14:08;13.40;44.00
65462;DHT22;53236;43.666;18.444;2023-04-08T11:16:35;13.50;45.70
65462;DHT22;53236;43.666;18.444;2023-04-08T11:19:02;13.70;46.50
65462;DHT22;53236;43.666;18.444;2023-04-08T11:21:30;13.80;46.20
65462;DHT22;53236;43.666;18.444;2023-04-08T11:23:56;14.10;46.50
65462;DHT22;53236;43.666;18.444;2023-04-08T11:26:23;13.90;45.50
65462;DHT22;53236;43.666;18.444;2023-04-08T11:28:49;14.00;45.10
65462;DHT22;53236;43.666;18.444;2023-04-08T11:31:17;14.10;46.30
65462;DHT22;53236;43.666;18.444;2023-04-08T11:33:47;14.30;43.80
65462;DHT22;53236;43.666;18.444;2023-04-08T11:36:13;14.30;46.50
65462;DHT22;53236;43.666;18.444;2023-04-08T11:38:39;14.30;45.90
65462;DHT22;53236;43.666;18.444;2023-04-08T11:41:06;14.20;46.00
65462;DHT22;53236;43.666;18.444;2023-04-08T11:43:31;14.20;45.30
65462;DHT22;53236;43.666;18.444;2023-04-08T11:45:57;14.30;45.90
65462;DHT22;53236;43.666;18.444;2023-04-08T11:48:23;14.20;46.10
65462;DHT22;53236;43.666;18.444;2023-04-08T11:51:02;14.50;46.00
65462;DHT22;53236;43.666;18.444;2023-04-08T11:53:28;14.40;45.50
65462;DHT22;53236;43.666;18.444;2023-04-08T11:55:54;14.30;44.40
65462;DHT22;53236;43.666;18.444;2023-04-08T11:58:20;14.30;46.00
65462;DHT22;53236;43.666;18.444;2023-04-08T12:00:46;14.20;45.30
65462;DHT22;53236;43.666;18.444;2023-04-08T12:03:13;14.50;44.70
65462;DHT22;53236;43.666;18.444;2023-04-08T12:05:39;14.40;44.50
65462;DHT22;53236;43.666;18.444;2023-04-08T12:08:05;13.90;43.80
65462;DHT22;53236;43.666;18.444;2023-04-08T12:10:31;13.50;44.90
65462;DHT22;53236;43.666;18.444;2023-04-08T12:12:57;13.30;46.00
65462;DHT22;53236;43.666;18.444;2023-04-08T12:15:23;13.30;45.30
65462;DHT22;53236;43.666;18.444;2023-04-08T12:17:48;13.30;46.00
65462;DHT22;53236;43.666;18.444;2023-04-08T12:20:14;13.30;45.60
65462;DHT22;53236;43.666;18.444;2023-04-08T12:22:41;13.30;47.00
65462;DHT22;53236;43.666;18.444;2023-04-08T12:25:07;13.20;46.10
65462;DHT22;53236;43.666;18.444;2023-04-08T12:27:33;13.30;46.40
65462;DHT22;53236;43.666;18.444;2023-04-08T12:29:59;13.30;46.80
65462;DHT22;53236;43.666;18.444;2023-04-08T12:32:25;13.40;47.10
65462;DHT22;53236;43.666;18.444;2023-04-08T12:34:51;13.70;46.60
65462;DHT22;53236;43.666;18.444;2023-04-08T12:37:17;13.90;45.90
65462;DHT22;53236;43.666;18.444;2023-04-08T12:39:42;14.10;45.60
65462;DHT22;53236;43.666;18.444;2023-04-08T12:42:08;14.20;45.90
65462;DHT22;53236;43.666;18.444;2023-04-08T12:44:34;14.20;44.40
65462;DHT22;53236;43.666;18.444;2023-04-08T12:47:00;13.90;44.40
65462;DHT22;53236;43.666;18.444;2023-04-08T12:49:25;14.00;45.20
65462;DHT22;53236;43.666;18.444;2023-04-08T12:51:52;14.20;47.90
65462;DHT22;53236;43.666;18.444;2023-04-08T12:54:18;14.10;46.60
65462;DHT22;53236;43.666;18.444;2023-04-08T12:56:44;14.30;44.10
65462;DHT22;53236;43.666;18.444;2023-04-08T12:59:11;14.40;45.70
65462;DHT22;53236;43.666;18.444;2023-04-08T13:01:36;14.10;45.60
65462;DHT22;53236;43.666;18.444;2023-04-08T13:04:02;13.40;45.80
65462;DHT22;53236;43.666;18.444;2023-04-08T13:06:28;13.40;47.40
65462;DHT22;53236;43.666;18.444;2023-04-08T13:08:54;13.40;46.50
65462;DHT22;53236;43.666;18.444;2023-04-08T13:11:20;13.50;46.10
65462;DHT22;53236;43.666;18.444;2023-04-08T13:13:46;13.10;47.80
65462;DHT22;53236;43.666;18.444;2023-04-08T13:16:12;13.00;47.70
65462;DHT22;53236;43.666;18.444;2023-04-08T13:18:41;13.00;47.90
65462;DHT22;53236;43.666;18.444;2023-04-08T13:21:07;12.80;48.40
65462;DHT22;53236;43.666;18.444;2023-04-08T13:23:33;12.80;48.40
65462;DHT22;53236;43.666;18.444;2023-04-08T13:25:59;12.80;48.60
65462;DHT22;53236;43.666;18.444;2023-04-08T13:28:25;12.60;49.10
65462;DHT22;53236;43.666;18.444;2023-04-08T13:30:51;12.60;51.20
65462;DHT22;53236;43.666;18.444;2023-04-08T13:33:18;12.50;50.50
65462;DHT22;53236;43.666;18.444;2023-04-08T13:35:44;12.50;50.30
65462;DHT22;53236;43.666;18.444;2023-04-08T13:38:10;12.40;50.40
65462;DHT22;53236;43.666;18.444;2023-04-08T13:40:37;12.20;50.60
65462;DHT22;53236;43.666;18.444;2023-04-08T13:43:02;12.00;50.90
65462;DHT22;53236;43.666;18.444;2023-04-08T13:45:28;11.90;51.30
65462;DHT22;53236;43.666;18.444;2023-04-08T13:47:54;11.70;51.00
65462;DHT22;53236;43.666;18.444;2023-04-08T13:50:21;11.60;51.30
65462;DHT22;53236;43.666;18.444;2023-04-08T13:52:46;11.70;52.30
65462;DHT22;53236;43.666;18.444;2023-04-08T13:55:12;11.60;52.10
65462;DHT22;53236;43.666;18.444;2023-04-08T13:57:38;11.40;52.90
65462;DHT22;53236;43.666;18.444;2023-04-08T14:00:04;11.20;52.50
65462;DHT22;53236;43.666;18.444;2023-04-08T14:02:29;11.00;53.10
65462;DHT22;53236;43.666;18.444;2023-04-08T14:04:56;10.70;53.90
65462;DHT22;53236;43.666;18.444;2023-04-08T14:07:22;10.60;54.50
65462;DHT22;53236;43.666;18.444;2023-04-08T14:09:48;10.40;55.60
65462;DHT22;53236;43.666;18.444;2023-04-08T14:12:14;10.40;55.60
65462;DHT22;53236;43.666;18.444;2023-04-08T14:14:39;10.20;55.40
65462;DHT22;53236;43.666;18.444;2023-04-08T14:17:05;10.20;56.30
65462;DHT22;53236;43.666;18.444;2023-04-08T14:19:31;10.10;56.50
65462;DHT22;53236;43.666;18.444;2023-04-08T14:21:57;10.10;57.10
65462;DHT22;53236;43.666;18.444;2023-04-08T14:24:23;10.10;57.90
65462;DHT22;53236;43.666;18.444;2023-04-08T14:26:49;9.90;58.00
65462;DHT22;53236;43.666;18.444;2023-04-08T14:29:15;9.80;59.30
65462;DHT22;53236;43.666;18.444;2023-04-08T14:31:41;9.80;59.70
65462;DHT22;53236;43.666;18.444;2023-04-08T14:34:07;9.70;61.40
65462;DHT22;53236;43.666;18.444;2023-04-08T14:36:32;9.70;60.50
65462;DHT22;53236;43.666;18.444;2023-04-08T14:38:58;9.70;61.20
65462;DHT22;53236;43.666;18.444;2023-04-08T14:41:24;9.70;61.20
65462;DHT22;53236;43.666;18.444;2023-04-08T14:43:53;9.70;60.40
65462;DHT22;53236;43.666;18.444;2023-04-08T14:46:19;9.80;60.10
65462;DHT22;53236;43.666;18.444;2023-04-08T14:48:45;9.80;59.60
65462;DHT22;53236;43.666;18.444;2023-04-08T14:51:11;10.00;59.50
65462;DHT22;53236;43.666;18.444;2023-04-08T14:53:37;10.10;59.50
65462;DHT22;53236;43.666;18.444;2023-04-08T14:56:03;10.20;59.90
65462;DHT22;53236;43.666;18.444;2023-04-08T14:58:29;10.40;58.70
65462;DHT22;53236;43.666;18.444;2023-04-08T15:00:55;10.40;58.00
65462;DHT22;53236;43.666;18.444;2023-04-08T15:03:21;10.50;58.40
65462;DHT22;53236;43.666;18.444;2023-04-08T15:05:47;10.60;57.90
65462;DHT22;53236;43.666;18.444;2023-04-08T15:08:13;10.60;57.80
65462;DHT22;53236;43.666;18.444;2023-04-08T15:10:39;10.50;57.70
65462;DHT22;53236;43.666;18.444;2023-04-08T15:13:04;10.60;57.80
65462;DHT22;53236;43.666;18.444;2023-04-08T15:15:30;10.70;57.10
65462;DHT22;53236;43.666;18.444;2023-04-08T15:17:56;10.70;57.60
65462;DHT22;53236;43.666;18.444;2023-04-08T15:20:22;10.70;57.60
65462;DHT22;53236;43.666;18.444;2023-04-08T15:22:48;10.70;57.10
65462;DHT22;53236;43.666;18.444;2023-04-08T15:25:13;10.80;57.20
65462;DHT22;53236;43.666;18.444;2023-04-08T15:27:40;10.90;56.00
65462;DHT22;53236;43.666;18.444;2023-04-08T15:30:06;11.00;57.00
65462;DHT22;53236;43.666;18.444;2023-04-08T15:32:33;11.10;56.90